sensor_id;sensor_type;location;lat;lon;timestamp;temperature;humidity
25436;DHT22;13363;52.772;-3.890;2023-06-10T00:02:08;16.60;99.90
25436;DHT22;13363;52.772;-3.890;2023-06-10T00:04:34;16.50;99.90
25436;DHT22;13363;52.772;-3.890;2023-06-10T00:07:03;16.50;99.90
25436;DHT22;13363;52.772;-3.890;2023-06-10T00:09:29;16.40;99.90
25436;DHT22;13363;52.772;-3.890;2023-06-10T00:11:55;16.40;99.90
25436;DHT22;13363;52.772;-3.890;2023-06-10T00:14:21;16.50;99.90
25436;DHT22;13363;52.772;-3.890;2023-06-10T00:16:46;16.50;99.90
25436;DHT22;13363;52.772;-3.890;2023-06-10T00:19:12;16.70;99.90
25436;DHT22;13363;52.772;-3.890;2023-06-10T00:21:41;16.80;99.90
25436;DHT22;13363;52.772;-3.890;2023-06-10T00:24:10;16.90;99.90
25436;DHT22;13363;52.772;-3.890;2023-06-10T00:26:38;16.90;99.90
25436;DHT22;13363;52.772;-3.890;2023-06-10T00:29:04;16.90;99.90
25436;DHT22;13363;52.772;-3.890;2023-06-10T00:31:31;16.90;99.90
25436;DHT22;13363;52.772;-3.890;2023-06-10T00:33:56;16.70;99.90
25436;DHT22;13363;52.772;-3.890;2023-06-10T00:36:24;16.60;99.90
25436;DHT22;13363;52.772;-3.890;2023-06-10T00:38:50;16.50;99.90
25436;DHT22;13363;52.772;-3.890;2023-06-10T00:41:15;16.30;99.90
25436;DHT22;13363;52.772;-3.890;2023-06-10T00:43:41;16.20;99.90
25436;DHT22;13363;52.772;-3.890;2023-06-10T00:46:07;16.20;99.90
25436;DHT22;13363;52.772;-3.890;2023-06-10T00:48:34;16.10;99.90
25436;DHT22;13363;52.772;-3.890;2023-06-10T00:51:00;16.10;99.90
25436;DHT22;13363;52.772;-3.890;2023-06-10T00:53:26;16.00;99.90
25436;DHT22;13363;52.772;-3.890;2023-06-10T00:55:53;15.90;99.90
25436;DHT22;13363;52.772;-3.890;2023-06-10T00:58:19;15.80;99.90
25436;DHT22;13363;52.772;-3.890;2023-06-10T01:00:45;15.70;99.90
25436;DHT22;13363;52.772;-3.890;2023-06-10T01:03:12;15.60;99.90
25436;DHT22;13363;52.772;-3.890;2023-06-10T01:05:38;15.50;99.90
25436;DHT22;13363;52.772;-3.890;2023-06-10T01:10:57;15.40;99.90
25436;DHT22;13363;52.772;-3.890;2023-06-10T01:13:26;15.40;99.90
25436;DHT22;13363;52.772;-3.890;2023-06-10T01:15:54;15.40;99.90
25436;DHT22;13363;52.772;-3.890;2023-06-10T01:18:21;15.40;99.90
25436;DHT22;13363;52.772;-3.890;2023-06-10T01:20:47;15.40;99.90
25436;DHT22;13363;52.772;-3.890;2023-06-10T01:23:15;15.30;99.90
25436;DHT22;13363;52.772;-3.890;2023-06-10T01:26:06;15.30;99.90
25436;DHT22;13363;52.772;-3.890;2023-06-10T01:28:46;15.30;99.90
25436;DHT22;13363;52.772;-3.890;2023-06-10T01:31:38;15.20;99.90
25436;DHT22;13363;52.772;-3.890;2023-06-10T01:34:16;15.20;99.90
25436;DHT22;13363;52.772;-3.890;2023-06-10T01:36:46;15.10;99.90
25436;DHT22;13363;52.772;-3.890;2023-06-10T01:39:16;15.10;99.90
25436;DHT22;13363;52.772;-3.890;2023-06-10T01:41:42;15.00;99.90
25436;DHT22;13363;52.772;-3.890;2023-06-10T01:44:09;14.90;99.90
25436;DHT22;13363;52.772;-3.890;2023-06-10T01:46:35;14.90;99.90
25436;DHT22;13363;52.772;-3.890;2023-06-10T01:49:01;14.90;99.90
25436;DHT22;13363;52.772;-3.890;2023-06-10T01:51:26;14.90;99.90
25436;DHT22;13363;52.772;-3.890;2023-06-10T01:53:52;14.80;99.90
25436;DHT22;13363;52.772;-3.890;2023-06-10T01:56:18;14.80;99.90
25436;DHT22;13363;52.772;-3.890;2023-06-10T01:58:46;14.80;99.90
25436;DHT22;13363;52.772;-3.890;2023-06-10T02:01:13;14.70;99.90
25436;DHT22;13363;52.772;-3.890;2023-06-10T02:03:39;14.70;99.90
25436;DHT22;13363;52.772;-3.890;2023-06-10T02:06:04;14.60;99.90
25436;DHT22;13363;52.772;-3.890;2023-06-10T02:08:30;14.60;99.90
25436;DHT22;13363;52.772;-3.890;2023-06-10T02:10:56;14.50;99.90
25436;DHT22;13363;52.772;-3.890;2023-06-10T02:13:22;14.50;99.90
25436;DHT22;13363;52.772;-3.890;2023-06-10T02:15:48;14.40;99.90
25436;DHT22;13363;52.772;-3.890;2023-06-10T02:18:13;14.40;99.90
25436;DHT22;13363;52.772;-3.890;2023-06-10T02:20:39;14.40;99.90
25436;DHT22;13363;52.772;-3.890;2023-06-10T02:23:05;14.40;99.90
25436;DHT22;13363;52.772;-3.890;2023-06-10T02:25:31;14.40;99.90
25436;DHT22;13363;52.772;-3.890;2023-06-10T02:27:57;14.40;99.90
25436;DHT22;13363;52.772;-3.890;2023-06-10T02:30:23;14.30;99.90
25436;DHT22;13363;52.772;-3.890;2023-06-10T02:32:49;14.30;99.90
25436;DHT22;13363;52.772;-3.890;2023-06-10T02:35:16;14.30;99.90
25436;DHT22;13363;52.772;-3.890;2023-06-10T02:37:43;14.10;99.90
25436;DHT22;13363;52.772;-3.890;2023-06-10T02:40:09;14.20;99.90
25436;DHT22;13363;52.772;-3.890;2023-06-10T02:42:36;14.30;99.90
25436;DHT22;13363;52.772;-3.890;2023-06-10T02:45:02;14.30;99.90
25436;DHT22;13363;52.772;-3.890;2023-06-10T02:47:28;14.20;99.90
25436;DHT22;13363;52.772;-3.890;2023-06-10T02:49:54;14.20;99.90
25436;DHT22;13363;52.772;-3.890;2023-06-10T02:52:20;14.20;99.90
25436;DHT22;13363;52.772;-3.890;2023-06-10T02:54:46;14.10;99.90
25436;DHT22;13363;52.772;-3.890;2023-06-10T02:57:11;14.10;99.90
25436;DHT22;13363;52.772;-3.890;2023-06-10T02:59:40;14.10;99.90
25436;DHT22;13363;52.772;-3.890;2023-06-10T03:02:06;14.20;99.90
25436;DHT22;13363;52.772;-3.890;2023-06-10T03:04:33;14.30;99.90
25436;DHT22;13363;52.772;-3.890;2023-06-10T03:06:59;14.20;99.90
25436;DHT22;13363;52.772;-3.890;2023-06-10T03:09:29;14.20;99.90
25436;DHT22;13363;52.772;-3.890;2023-06-10T03:11:55;14.10;99.90
25436;DHT22;13363;52.772;-3.890;2023-06-10T03:14:21;14.10;99.90
25436;DHT22;13363;52.772;-3.890;2023-06-10T03:16:46;13.90;99.90
25436;DHT22;13363;52.772;-3.890;2023-06-10T03:19:12;13.90;99.90
25436;DHT22;13363;52.772;-3.890;2023-06-10T03:21:38;13.80;99.90
25436;DHT22;13363;52.772;-3.890;2023-06-10T03:24:05;13.80;99.90
25436;DHT22;13363;52.772;-3.890;2023-06-10T03:26:31;13.70;99.90
25436;DHT22;13363;52.772;-3.890;2023-06-10T03:28:57;13.70;99.90
25436;DHT22;13363;52.772;-3.890;2023-06-10T03:31:22;13.60;99.90
25436;DHT22;13363;52.772;-3.890;2023-06-10T03:33:50;13.60;99.90
25436;DHT22;13363;52.772;-3.890;2023-06-10T03:36:16;13.60;99.90
25436;DHT22;13363;52.772;-3.890;2023-06-10T03:38:43;13.60;99.90
25436;DHT22;13363;52.772;-3.890;2023-06-10T03:41:09;13.50;99.90
25436;DHT22;13363;52.772;-3.890;2023-06-10T03:43:35;13.70;99.90
25436;DHT22;13363;52.772;-3.890;2023-06-10T03:46:01;13.70;99.90
25436;DHT22;13363;52.772;-3.890;2023-06-10T03:48:26;13.70;99.90
25436;DHT22;13363;52.772;-3.890;2023-06-10T03:50:52;13.80;99.90
25436;DHT22;13363;52.772;-3.890;2023-06-10T03:53:18;13.70;99.90
25436;DHT22;13363;52.772;-3.890;2023-06-10T03:55:44;13.70;99.90
25436;DHT22;13363;52.772;-3.890;2023-06-10T03:58:11;13.60;99.90
25436;DHT22;13363;52.772;-3.890;2023-06-10T04:00:39;13.60;99.90
25436;DHT22;13363;52.772;-3.890;2023-06-10T04:03:10;13.50;99.90
25436;DHT22;13363;52.772;-3.890;2023-06-10T04:05:40;13.50;99.90
25436;DHT22;13363;52.772;-3.890;2023-06-10T04:08:07;13.50;99.90
25436;DHT22;13363;52.772;-3.890;2023-06-10T04:10:33;13.30;99.90
25436;DHT22;13363;52.772;-3.890;2023-06-10T04:12:59;13.30;99.90
25436;DHT22;13363;52.772;-3.890;2023-06-10T04:15:25;13.30;99.90
25436;DHT22;13363;52.772;-3.890;2023-06-10T04:17:51;13.40;99.90
25436;DHT22;13363;52.772;-3.890;2023-06-10T04:20:18;13.40;99.90
25436;DHT22;13363;52.772;-3.890;2023-06-10T04:22:44;13.30;99.90
25436;DHT22;13363;52.772;-3.890;2023-06-10T04:25:10;13.30;99.90
25436;DHT22;13363;52.772;-3.890;2023-06-10T04:27:35;13.30;99.90
25436;DHT22;13363;52.772;-3.890;2023-06-10T04:30:03;13.50;99.90
25436;DHT22;13363;52.772;-3.890;2023-06-10T04:32:29;13.50;99.90
25436;DHT22;13363;52.772;-3.890;2023-06-10T04:34:55;13.60;99.90
25436;DHT22;13363;52.772;-3.890;2023-06-10T04:37:21;13.50;99.90
25436;DHT22;13363;52.772;-3.890;2023-06-10T04:39:47;13.30;99.90
25436;DHT22;13363;52.772;-3.890;2023-06-10T04:42:13;13.30;99.90
25436;DHT22;13363;52.772;-3.890;2023-06-10T04:44:39;13.30;99.90
25436;DHT22;13363;52.772;-3.890;2023-06-10T04:47:06;13.40;99.90
25436;DHT22;13363;52.772;-3.890;2023-06-10T04:49:33;13.30;99.90
25436;DHT22;13363;52.772;-3.890;2023-06-10T04:51:59;13.30;99.90
25436;DHT22;13363;52.772;-3.890;2023-06-10T04:54:25;13.30;99.90
25436;DHT22;13363;52.772;-3.890;2023-06-10T04:56:51;13.40;99.90
25436;DHT22;13363;52.772;-3.890;2023-06-10T04:59:17;13.60;99.90
25436;DHT22;13363;52.772;-3.890;2023-06-10T05:01:43;13.70;99.90
25436;DHT22;13363;52.772;-3.890;2023-06-10T05:04:09;13.90;99.90
25436;DHT22;13363;52.772;-3.890;2023-06-10T05:06:35;14.10;99.90
25436;DHT22;13363;52.772;-3.890;2023-06-10T05:09:02;14.20;99.90
25436;DHT22;13363;52.772;-3.890;2023-06-10T05:11:27;14.40;99.90
25436;DHT22;13363;52.772;-3.890;2023-06-10T05:13:53;14.60;99.90
25436;DHT22;13363;52.772;-3.890;2023-06-10T05:16:19;14.70;99.90
25436;DHT22;13363;52.772;-3.890;2023-06-10T05:18:45;14.70;99.90
25436;DHT22;13363;52.772;-3.890;2023-06-10T05:21:11;14.70;99.90
25436;DHT22;13363;52.772;-3.890;2023-06-10T05:23:37;14.70;99.90
25436;DHT22;13363;52.772;-3.890;2023-06-10T05:26:03;14.70;99.90
25436;DHT22;13363;52.772;-3.890;2023-06-10T05:28:28;14.90;99.90
25436;DHT22;13363;52.772;-3.890;2023-06-10T05:30:54;15.20;99.90
25436;DHT22;13363;52.772;-3.890;2023-06-10T05:33:20;15.30;99.90
25436;DHT22;13363;52.772;-3.890;2023-06-10T05:35:46;15.60;99.90
25436;DHT22;13363;52.772;-3.890;2023-06-10T05:38:12;16.00;99.90
25436;DHT22;13363;52.772;-3.890;2023-06-10T05:40:38;16.60;99.90
25436;DHT22;13363;52.772;-3.890;2023-06-10T05:43:03;17.30;99.90
25436;DHT22;13363;52.772;-3.890;2023-06-10T05:45:29;17.50;99.90
25436;DHT22;13363;52.772;-3.890;2023-06-10T05:47:55;17.50;99.90
25436;DHT22;13363;52.772;-3.890;2023-06-10T05:50:21;17.50;99.90
25436;DHT22;13363;52.772;-3.890;2023-06-10T05:52:47;17.60;99.90
25436;DHT22;13363;52.772;-3.890;2023-06-10T05:55:13;17.80;99.90
25436;DHT22;13363;52.772;-3.890;2023-06-10T05:57:41;17.80;99.90
25436;DHT22;13363;52.772;-3.890;2023-06-10T06:00:07;17.90;99.90
25436;DHT22;13363;52.772;-3.890;2023-06-10T06:02:33;18.10;99.90
25436;DHT22;13363;52.772;-3.890;2023-06-10T06:04:59;18.40;99.90
25436;DHT22;13363;52.772;-3.890;2023-06-10T06:07:25;18.80;99.90
25436;DHT22;13363;52.772;-3.890;2023-06-10T06:09:51;19.50;99.90
25436;DHT22;13363;52.772;-3.890;2023-06-10T06:12:16;20.30;99.90
25436;DHT22;13363;52.772;-3.890;2023-06-10T06:14:42;20.90;99.90
25436;DHT22;13363;52.772;-3.890;2023-06-10T06:17:08;20.90;99.90
25436;DHT22;13363;52.772;-3.890;2023-06-10T06:19:34;21.20;99.90
25436;DHT22;13363;52.772;-3.890;2023-06-10T06:22:00;21.90;99.90
25436;DHT22;13363;52.772;-3.890;2023-06-10T06:24:26;22.80;99.90
25436;DHT22;13363;52.772;-3.890;2023-06-10T06:26:51;23.60;99.90
25436;DHT22;13363;52.772;-3.890;2023-06-10T06:29:18;24.30;99.90
25436;DHT22;13363;52.772;-3.890;2023-06-10T06:31:43;25.00;99.90
25436;DHT22;13363;52.772;-3.890;2023-06-10T06:34:09;25.90;99.90
25436;DHT22;13363;52.772;-3.890;2023-06-10T06:36:35;25.90;99.90
25436;DHT22;13363;52.772;-3.890;2023-06-10T06:39:01;25.20;99.90
25436;DHT22;13363;52.772;-3.890;2023-06-10T06:41:27;24.80;99.90
25436;DHT22;13363;52.772;-3.890;2023-06-10T06:43:56;24.70;99.90
25436;DHT22;13363;52.772;-3.890;2023-06-10T06:46:23;24.70;99.90
25436;DHT22;13363;52.772;-3.890;2023-06-10T06:48:48;24.60;99.90
25436;DHT22;13363;52.772;-3.890;2023-06-10T06:51:14;24.10;99.90
25436;DHT22;13363;52.772;-3.890;2023-06-10T06:53:40;24.00;99.90
25436;DHT22;13363;52.772;-3.890;2023-06-10T06:56:10;24.50;99.90
25436;DHT22;13363;52.772;-3.890;2023-06-10T06:58:36;24.90;99.90
25436;DHT22;13363;52.772;-3.890;2023-06-10T07:01:02;25.00;99.90
25436;DHT22;13363;52.772;-3.890;2023-06-10T07:03:28;25.10;99.90
25436;DHT22;13363;52.772;-3.890;2023-06-10T07:05:54;25.80;99.90
25436;DHT22;13363;52.772;-3.890;2023-06-10T07:08:20;26.10;99.90
25436;DHT22;13363;52.772;-3.890;2023-06-10T07:10:45;26.00;99.90
25436;DHT22;13363;52.772;-3.890;2023-06-10T07:13:11;26.50;99.90
25436;DHT22;13363;52.772;-3.890;2023-06-10T07:15:38;26.20;99.90
25436;DHT22;13363;52.772;-3.890;2023-06-10T07:18:04;26.10;99.90
25436;DHT22;13363;52.772;-3.890;2023-06-10T07:20:31;26.00;99.90
25436;DHT22;13363;52.772;-3.890;2023-06-10T07:22:56;26.80;99.90
25436;DHT22;13363;52.772;-3.890;2023-06-10T07:25:22;27.20;99.90
25436;DHT22;13363;52.772;-3.890;2023-06-10T07:27:49;27.60;99.90
25436;DHT22;13363;52.772;-3.890;2023-06-10T07:30:15;25.90;99.90
25436;DHT22;13363;52.772;-3.890;2023-06-10T07:32:41;24.40;99.90
25436;DHT22;13363;52.772;-3.890;2023-06-10T07:35:09;24.50;99.90
25436;DHT22;13363;52.772;-3.890;2023-06-10T07:37:36;24.40;99.90
25436;DHT22;13363;52.772;-3.890;2023-06-10T07:40:02;24.50;99.90
25436;DHT22;13363;52.772;-3.890;2023-06-10T07:42:28;24.60;99.90
25436;DHT22;13363;52.772;-3.890;2023-06-10T07:44:54;24.20;99.90
25436;DHT22;13363;52.772;-3.890;2023-06-10T07:47:20;23.90;99.90
25436;DHT22;13363;52.772;-3.890;2023-06-10T07:49:46;24.70;99.90
25436;DHT22;13363;52.772;-3.890;2023-06-10T07:52:11;25.90;99.90
25436;DHT22;13363;52.772;-3.890;2023-06-10T07:54:37;26.60;99.90
25436;DHT22;13363;52.772;-3.890;2023-06-10T07:57:03;26.50;99.90
25436;DHT22;13363;52.772;-3.890;2023-06-10T07:59:29;26.00;99.90
25436;DHT22;13363;52.772;-3.890;2023-06-10T08:01:55;26.00;99.90
25436;DHT22;13363;52.772;-3.890;2023-06-10T08:04:21;26.10;99.90
25436;DHT22;13363;52.772;-3.890;2023-06-10T08:06:46;25.70;99.90
25436;DHT22;13363;52.772;-3.890;2023-06-10T08:09:12;25.90;99.90
25436;DHT22;13363;52.772;-3.890;2023-06-10T08:11:38;25.10;99.90
25436;DHT22;13363;52.772;-3.890;2023-06-10T08:14:04;25.30;99.90
25436;DHT22;13363;52.772;-3.890;2023-06-10T08:16:29;25.50;99.90
25436;DHT22;13363;52.772;-3.890;2023-06-10T08:18:55;26.20;99.90
25436;DHT22;13363;52.772;-3.890;2023-06-10T08:21:21;26.80;99.90
25436;DHT22;13363;52.772;-3.890;2023-06-10T08:23:47;27.70;99.90
25436;DHT22;13363;52.772;-3.890;2023-06-10T08:26:13;26.20;99.90
25436;DHT22;13363;52.772;-3.890;2023-06-10T08:28:39;25.90;99.90
25436;DHT22;13363;52.772;-3.890;2023-06-10T08:31:04;26.30;99.90
25436;DHT22;13363;52.772;-3.890;2023-06-10T08:33:30;27.00;99.90
25436;DHT22;13363;52.772;-3.890;2023-06-10T08:35:56;27.70;99.90
25436;DHT22;13363;52.772;-3.890;2023-06-10T08:38:22;27.30;99.90
25436;DHT22;13363;52.772;-3.890;2023-06-10T08:40:48;26.60;99.90
25436;DHT22;13363;52.772;-3.890;2023-06-10T08:43:25;25.10;99.90
25436;DHT22;13363;52.772;-3.890;2023-06-10T08:45:58;25.10;99.90
25436;DHT22;13363;52.772;-3.890;2023-06-10T08:48:30;25.00;99.90
25436;DHT22;13363;52.772;-3.890;2023-06-10T08:50:57;25.40;99.90
25436;DHT22;13363;52.772;-3.890;2023-06-10T08:53:23;24.80;99.90
25436;DHT22;13363;52.772;-3.890;2023-06-10T08:55:52;24.70;99.90
25436;DHT22;13363;52.772;-3.890;2023-06-10T08:58:19;24.80;99.90
25436;DHT22;13363;52.772;-3.890;2023-06-10T09:00:45;24.90;99.90
25436;DHT22;13363;52.772;-3.890;2023-06-10T09:03:11;24.90;99.90
25436;DHT22;13363;52.772;-3.890;2023-06-10T09:05:38;25.20;99.90
25436;DHT22;13363;52.772;-3.890;2023-06-10T09:08:06;25.90;99.90
25436;DHT22;13363;52.772;-3.890;2023-06-10T09:10:32;26.90;99.90
25436;DHT22;13363;52.772;-3.890;2023-06-10T09:12:58;26.70;99.90
25436;DHT22;13363;52.772;-3.890;2023-06-10T09:15:24;27.50;99.90
25436;DHT22;13363;52.772;-3.890;2023-06-10T09:17:54;28.70;99.90
25436;DHT22;13363;52.772;-3.890;2023-06-10T09:20:25;29.10;99.90
25436;DHT22;13363;52.772;-3.890;2023-06-10T09:22:52;29.10;99.90
25436;DHT22;13363;52.772;-3.890;2023-06-10T09:25:19;28.70;99.90
25436;DHT22;13363;52.772;-3.890;2023-06-10T09:30:32;28.00;99.90
25436;DHT22;13363;52.772;-3.890;2023-06-10T09:33:00;28.20;99.90
25436;DHT22;13363;52.772;-3.890;2023-06-10T09:35:28;28.60;99.90
25436;DHT22;13363;52.772;-3.890;2023-06-10T09:37:56;28.70;99.90
25436;DHT22;13363;52.772;-3.890;2023-06-10T09:40:23;27.40;99.90
25436;DHT22;13363;52.772;-3.890;2023-06-10T09:42:56;28.20;99.90
25436;DHT22;13363;52.772;-3.890;2023-06-10T09:45:23;28.90;99.90
25436;DHT22;13363;52.772;-3.890;2023-06-10T09:47:53;28.50;99.90
25436;DHT22;13363;52.772;-3.890;2023-06-10T09:50:19;28.60;99.90
25436;DHT22;13363;52.772;-3.890;2023-06-10T09:52:46;28.70;99.90
25436;DHT22;13363;52.772;-3.890;2023-06-10T09:55:13;29.20;99.90
25436;DHT22;13363;52.772;-3.890;2023-06-10T09:57:40;28.70;99.90
25436;DHT22;13363;52.772;-3.890;2023-06-10T10:00:09;28.70;99.90
25436;DHT22;13363;52.772;-3.890;2023-06-10T10:02:52;28.70;99.90
25436;DHT22;13363;52.772;-3.890;2023-06-10T10:05:20;28.50;99.90
25436;DHT22;13363;52.772;-3.890;2023-06-10T10:07:47;28.10;99.90
25436;DHT22;13363;52.772;-3.890;2023-06-10T10:10:15;28.50;99.90
25436;DHT22;13363;52.772;-3.890;2023-06-10T10:12:41;27.40;99.90
25436;DHT22;13363;52.772;-3.890;2023-06-10T10:15:09;26.90;99.90
25436;DHT22;13363;52.772;-3.890;2023-06-10T10:17:58;26.70;99.90
25436;DHT22;13363;52.772;-3.890;2023-06-10T10:20:29;27.00;99.90
25436;DHT22;13363;52.772;-3.890;2023-06-10T10:22:57;26.40;99.90
25436;DHT22;13363;52.772;-3.890;2023-06-10T10:25:27;26.10;99.90
25436;DHT22;13363;52.772;-3.890;2023-06-10T10:28:04;26.80;99.90
25436;DHT22;13363;52.772;-3.890;2023-06-10T10:30:45;27.50;99.90
25436;DHT22;13363;52.772;-3.890;2023-06-10T10:36:15;28.30;99.90
25436;DHT22;13363;52.772;-3.890;2023-06-10T10:38:41;28.30;99.90
25436;DHT22;13363;52.772;-3.890;2023-06-10T10:41:08;28.20;99.90
25436;DHT22;13363;52.772;-3.890;2023-06-10T10:43:35;28.20;99.90
25436;DHT22;13363;52.772;-3.890;2023-06-10T10:46:16;28.50;99.90
25436;DHT22;13363;52.772;-3.890;2023-06-10T10:48:44;28.50;99.90
25436;DHT22;13363;52.772;-3.890;2023-06-10T10:51:11;28.90;99.90
25436;DHT22;13363;52.772;-3.890;2023-06-10T10:53:39;29.30;99.90
25436;DHT22;13363;52.772;-3.890;2023-06-10T10:56:27;29.90;99.90
25436;DHT22;13363;52.772;-3.890;2023-06-10T10:59:03;30.20;99.90
25436;DHT22;13363;52.772;-3.890;2023-06-10T11:01:43;29.70;99.90
25436;DHT22;13363;52.772;-3.890;2023-06-10T11:04:12;28.90;99.90
25436;DHT22;13363;52.772;-3.890;2023-06-10T11:06:38;29.10;99.90
25436;DHT22;13363;52.772;-3.890;2023-06-10T11:09:26;29.10;99.90
25436;DHT22;13363;52.772;-3.890;2023-06-10T11:11:56;29.20;99.90
25436;DHT22;13363;52.772;-3.890;2023-06-10T11:14:28;28.90;99.90
25436;DHT22;13363;52.772;-3.890;2023-06-10T11:16:57;29.40;99.90
25436;DHT22;13363;52.772;-3.890;2023-06-10T11:19:36;30.00;99.90
25436;DHT22;13363;52.772;-3.890;2023-06-10T11:22:07;29.70;99.90
25436;DHT22;13363;52.772;-3.890;2023-06-10T11:24:33;29.50;99.90
25436;DHT22;13363;52.772;-3.890;2023-06-10T11:27:18;29.10;99.90
25436;DHT22;13363;52.772;-3.890;2023-06-10T11:32:30;29.00;99.90
25436;DHT22;13363;52.772;-3.890;2023-06-10T11:34:57;29.60;99.90
25436;DHT22;13363;52.772;-3.890;2023-06-10T11:37:23;30.50;99.90
25436;DHT22;13363;52.772;-3.890;2023-06-10T11:39:56;29.80;99.90
25436;DHT22;13363;52.772;-3.890;2023-06-10T11:42:22;28.70;99.90
25436;DHT22;13363;52.772;-3.890;2023-06-10T11:44:53;29.10;99.90
25436;DHT22;13363;52.772;-3.890;2023-06-10T11:47:20;29.40;99.90
25436;DHT22;13363;52.772;-3.890;2023-06-10T11:49:56;29.10;99.90
25436;DHT22;13363;52.772;-3.890;2023-06-10T11:52:31;28.70;99.90
25436;DHT22;13363;52.772;-3.890;2023-06-10T11:54:59;28.30;99.90
25436;DHT22;13363;52.772;-3.890;2023-06-10T11:57:25;28.50;99.90
25436;DHT22;13363;52.772;-3.890;2023-06-10T11:59:51;28.80;99.90
25436;DHT22;13363;52.772;-3.890;2023-06-10T12:02:17;28.00;99.90
25436;DHT22;13363;52.772;-3.890;2023-06-10T12:04:44;28.00;99.90
25436;DHT22;13363;52.772;-3.890;2023-06-10T12:07:18;27.60;99.90
25436;DHT22;13363;52.772;-3.890;2023-06-10T12:09:45;28.00;99.90
25436;DHT22;13363;52.772;-3.890;2023-06-10T12:12:11;28.70;99.90
25436;DHT22;13363;52.772;-3.890;2023-06-10T12:14:59;29.00;99.90
25436;DHT22;13363;52.772;-3.890;2023-06-10T12:19:58;28.70;99.90
25436;DHT22;13363;52.772;-3.890;2023-06-10T12:22:25;29.10;99.90
25436;DHT22;13363;52.772;-3.890;2023-06-10T12:25:05;29.60;99.90
25436;DHT22;13363;52.772;-3.890;2023-06-10T12:27:33;30.00;99.90
25436;DHT22;13363;52.772;-3.890;2023-06-10T12:30:03;30.10;99.90
25436;DHT22;13363;52.772;-3.890;2023-06-10T12:32:40;30.00;99.90
25436;DHT22;13363;52.772;-3.890;2023-06-10T12:35:07;29.80;99.90
25436;DHT22;13363;52.772;-3.890;2023-06-10T12:37:34;29.90;99.90
25436;DHT22;13363;52.772;-3.890;2023-06-10T12:40:05;28.80;99.90
25436;DHT22;13363;52.772;-3.890;2023-06-10T12:42:32;28.60;99.90
25436;DHT22;13363;52.772;-3.890;2023-06-10T12:45:00;28.50;99.90
25436;DHT22;13363;52.772;-3.890;2023-06-10T12:47:34;28.70;99.90
25436;DHT22;13363;52.772;-3.890;2023-06-10T12:50:10;28.70;99.90
25436;DHT22;13363;52.772;-3.890;2023-06-10T12:52:37;28.70;99.90
25436;DHT22;13363;52.772;-3.890;2023-06-10T12:55:03;28.40;99.90
25436;DHT22;13363;52.772;-3.890;2023-06-10T12:57:29;28.60;99.90
25436;DHT22;13363;52.772;-3.890;2023-06-10T12:59:56;28.80;99.90
25436;DHT22;13363;52.772;-3.890;2023-06-10T13:02:29;28.90;99.90
25436;DHT22;13363;52.772;-3.890;2023-06-10T13:04:55;29.00;99.90
25436;DHT22;13363;52.772;-3.890;2023-06-10T13:07:21;29.10;99.90
25436;DHT22;13363;52.772;-3.890;2023-06-10T13:09:48;29.20;99.90
25436;DHT22;13363;52.772;-3.890;2023-06-10T13:12:14;29.20;99.90
25436;DHT22;13363;52.772;-3.890;2023-06-10T13:14:40;29.60;99.90
25436;DHT22;13363;52.772;-3.890;2023-06-10T13:17:06;29.50;99.90
25436;DHT22;13363;52.772;-3.890;2023-06-10T13:19:33;29.00;99.90
25436;DHT22;13363;52.772;-3.890;2023-06-10T13:21:58;28.40;99.90
25436;DHT22;13363;52.772;-3.890;2023-06-10T13:24:24;28.20;99.90
25436;DHT22;13363;52.772;-3.890;2023-06-10T13:26:51;28.20;99.90
25436;DHT22;13363;52.772;-3.890;2023-06-10T13:29:17;28.10;99.90
25436;DHT22;13363;52.772;-3.890;2023-06-10T13:31:43;28.00;99.90
25436;DHT22;13363;52.772;-3.890;2023-06-10T13:34:09;27.90;99.90
25436;DHT22;13363;52.772;-3.890;2023-06-10T13:36:35;28.10;99.90
25436;DHT22;13363;52.772;-3.890;2023-06-10T13:39:01;28.10;99.90
25436;DHT22;13363;52.772;-3.890;2023-06-10T13:41:26;28.00;99.90
25436;DHT22;13363;52.772;-3.890;2023-06-10T13:43:54;28.50;99.90
25436;DHT22;13363;52.772;-3.890;2023-06-10T13:46:21;28.60;99.90
25436;DHT22;13363;52.772;-3.890;2023-06-10T13:48:52;27.70;99.90
25436;DHT22;13363;52.772;-3.890;2023-06-10T13:51:17;27.10;99.90
25436;DHT22;13363;52.772;-3.890;2023-06-10T13:53:43;26.60;99.90
25436;DHT22;13363;52.772;-3.890;2023-06-10T13:56:11;26.60;99.90
25436;DHT22;13363;52.772;-3.890;2023-06-10T13:58:37;26.90;99.90
25436;DHT22;13363;52.772;-3.890;2023-06-10T14:01:05;27.10;99.90
25436;DHT22;13363;52.772;-3.890;2023-06-10T14:03:31;26.60;99.90
25436;DHT22;13363;52.772;-3.890;2023-06-10T14:05:57;26.50;99.90
25436;DHT22;13363;52.772;-3.890;2023-06-10T14:08:23;26.70;99.90
25436;DHT22;13363;52.772;-3.890;2023-06-10T14:10:49;26.70;99.90
25436;DHT22;13363;52.772;-3.890;2023-06-10T14:13:17;26.60;99.90
25436;DHT22;13363;52.772;-3.890;2023-06-10T14:15:43;26.70;99.90
25436;DHT22;13363;52.772;-3.890;2023-06-10T14:18:09;26.30;99.90
25436;DHT22;13363;52.772;-3.890;2023-06-10T14:20:35;25.60;99.90
25436;DHT22;13363;52.772;-3.890;2023-06-10T14:23:02;25.50;99.90
25436;DHT22;13363;52.772;-3.890;2023-06-10T14:25:28;25.70;99.90
25436;DHT22;13363;52.772;-3.890;2023-06-10T14:27:54;25.80;99.90
25436;DHT22;13363;52.772;-3.890;2023-06-10T14:30:19;25.80;99.90
25436;DHT22;13363;52.772;-3.890;2023-06-10T14:32:45;25.60;99.90
25436;DHT22;13363;52.772;-3.890;2023-06-10T14:35:11;25.90;99.90
25436;DHT22;13363;52.772;-3.890;2023-06-10T14:37:37;26.20;99.90
25436;DHT22;13363;52.772;-3.890;2023-06-10T14:40:04;26.40;99.90
25436;DHT22;13363;52.772;-3.890;2023-06-10T14:42:30;26.30;99.90
25436;DHT22;13363;52.772;-3.890;2023-06-10T14:44:58;26.00;99.90
25436;DHT22;13363;52.772;-3.890;2023-06-10T14:47:23;25.80;99.90
25436;DHT22;13363;52.772;-3.890;2023-06-10T14:49:49;25.40;99.90
25436;DHT22;13363;52.772;-3.890;2023-06-10T14:52:15;25.30;99.90
25436;DHT22;13363;52.772;-3.890;2023-06-10T14:54:41;25.50;99.90
25436;DHT22;13363;52.772;-3.890;2023-06-10T14:57:07;25.40;99.90
25436;DHT22;13363;52.772;-3.890;2023-06-10T14:59:34;25.30;99.90
25436;DHT22;13363;52.772;-3.890;2023-06-10T15:02:00;25.00;99.90
25436;DHT22;13363;52.772;-3.890;2023-06-10T15:04:28;25.00;99.90
25436;DHT22;13363;52.772;-3.890;2023-06-10T15:06:54;25.10;99.90
25436;DHT22;13363;52.772;-3.890;2023-06-10T15:09:20;25.00;99.90
25436;DHT22;13363;52.772;-3.890;2023-06-10T15:11:46;25.00;99.90
25436;DHT22;13363;52.772;-3.890;2023-06-10T15:14:12;24.70;99.90
25436;DHT22;13363;52.772;-3.890;2023-06-10T15:16:38;25.10;99.90
25436;DHT22;13363;52.772;-3.890;2023-06-10T15:19:04;25.80;99.90
25436;DHT22;13363;52.772;-3.890;2023-06-10T15:21:32;26.00;99.90
25436;DHT22;13363;52.772;-3.890;2023-06-10T15:23:58;25.80;99.90
25436;DHT22;13363;52.772;-3.890;2023-06-10T15:26:23;25.50;99.90
25436;DHT22;13363;52.772;-3.890;2023-06-10T15:28:50;25.20;99.90
25436;DHT22;13363;52.772;-3.890;2023-06-10T15:31:16;25.10;99.90